Time;durP1;ratioP1;P1;durP2;ratioP2;P2;SDS_P1;SDS_P2;PMS_P1;PMS_P2;Temp;Humidity;BMP_temperature;BMP_pressure;BME280_temperature;BME280_humidity;BME280_pressure;Samples;Min_cycle;Max_cycle;Signal;HPM_P1;HPM_P2
2021/12/12 00:00:35;;;;;;;123.95;48.53;;;3.40;99.90;;;;;;4972308;28;20479;-82
2021/12/12 00:03:16;;;;;;;114.82;46.55;;;3.30;99.90;;;;;;4971865;28;20042;-81
2021/12/12 00:05:48;;;;;;;118.93;45.22;;;3.70;99.90;;;;;;4972433;28;20046;-81
2021/12/12 00:08:16;;;;;;;121.57;48.92;;;3.40;99.90;;;;;;4988985;28;20548;-82
2021/12/12 00:10:46;;;;;;;121.47;45.90;;;3.40;99.90;;;;;;4988695;28;20060;-82
2021/12/12 00:13:19;;;;;;;94.43;45.35;;;3.50;99.90;;;;;;4988481;28;20134;-81
2021/12/12 00:15:45;;;;;;;109.60;46.13;;;3.40;99.90;;;;;;4972952;28;20129;-81
2021/12/12 00:18:11;;;;;;;110.70;47.58;;;3.50;99.90;;;;;;4988040;28;20319;-82
2021/12/12 00:20:37;;;;;;;105.65;45.30;;;3.40;99.90;;;;;;4971936;28;20042;-81
2021/12/12 00:23:05;;;;;;;104.47;46.45;;;3.50;99.90;;;;;;4972601;28;20081;-82
2021/12/12 00:25:36;;;;;;;108.07;46.40;;;3.50;99.90;;;;;;4972074;28;20535;-82
2021/12/12 00:28:04;;;;;;;104.78;46.90;;;3.50;99.90;;;;;;4988520;28;20536;-81
2021/12/12 00:30:30;;;;;;;97.32;44.08;;;3.50;99.90;;;;;;4971725;28;20093;-82
2021/12/12 00:32:56;;;;;;;99.40;46.25;;;4.00;99.90;;;;;;4971051;28;20089;-82
2021/12/12 00:35:23;;;;;;;100.57;46.92;;;3.50;99.90;;;;;;4972017;28;20061;-81
2021/12/12 00:37:57;;;;;;;96.35;46.42;;;3.50;99.90;;;;;;4972138;28;20061;-81
2021/12/12 00:40:28;;;;;;;99.32;45.88;;;3.60;99.90;;;;;;4988567;28;20042;-81
2021/12/12 00:42:58;;;;;;;99.28;45.92;;;3.50;99.90;;;;;;4972714;28;20383;-81
2021/12/12 00:45:24;;;;;;;101.88;46.08;;;3.60;99.90;;;;;;4987863;28;20120;-82
2021/12/12 00:47:51;;;;;;;97.40;45.50;;;3.60;99.90;;;;;;4986979;28;20451;-81
2021/12/12 00:50:24;;;;;;;101.95;44.97;;;3.50;99.90;;;;;;4971819;28;20047;-81
2021/12/12 00:52:52;;;;;;;91.28;43.20;;;3.50;99.90;;;;;;4988058;28;20042;-82
2021/12/12 00:55:18;;;;;;;99.75;45.10;;;3.60;99.90;;;;;;4971415;28;20050;-82
2021/12/12 00:57:50;;;;;;;100.57;44.53;;;3.60;99.90;;;;;;4971916;28;20050;-82
2021/12/12 01:00:18;;;;;;;92.50;44.83;;;3.60;99.90;;;;;;4987734;28;20391;-82
2021/12/12 01:02:44;;;;;;;97.00;44.55;;;3.60;99.90;;;;;;4986796;28;20465;-82
2021/12/12 01:05:12;;;;;;;102.43;42.45;;;3.60;99.90;;;;;;4971661;28;20047;-82
2021/12/12 01:07:42;;;;;;;104.18;45.92;;;3.60;99.90;;;;;;4988052;28;20105;-82
2021/12/12 01:10:16;;;;;;;98.47;44.25;;;3.60;99.90;;;;;;4971177;28;20055;-82
2021/12/12 01:12:42;;;;;;;115.93;46.33;;;3.60;99.90;;;;;;4971337;28;20054;-83
2021/12/12 01:15:18;;;;;;;97.47;44.22;;;3.60;99.90;;;;;;4971866;28;20050;-82
2021/12/12 01:17:47;;;;;;;101.20;46.25;;;3.60;99.90;;;;;;4969981;28;20050;-82
2021/12/12 01:20:22;;;;;;;100.28;46.90;;;3.50;99.90;;;;;;4971262;28;20568;-83
2021/12/12 01:22:52;;;;;;;96.28;42.70;;;3.60;99.90;;;;;;4987123;28;20054;-82
2021/12/12 01:25:23;;;;;;;106.63;44.08;;;4.40;99.90;;;;;;4971594;28;20497;-82
2021/12/12 01:27:50;;;;;;;94.72;44.47;;;3.50;99.90;;;;;;4971431;28;20057;-82
2021/12/12 01:30:17;;;;;;;115.05;45.47;;;4.70;99.90;;;;;;4987152;28;20056;-82
2021/12/12 01:32:47;;;;;;;97.25;42.63;;;3.60;99.90;;;;;;4970521;28;20042;-82
2021/12/12 01:35:17;;;;;;;99.38;44.38;;;3.60;99.90;;;;;;4971652;28;20343;-82
2021/12/12 01:38:50;;;;;;;119.55;46.72;;;3.50;99.90;;;;;;4986957;28;20043;-82
2021/12/12 01:40:33;;;;;;;100.13;45.03;;;3.60;99.90;;;;;;4986997;28;20530;-82
2021/12/12 01:43:11;;;;;;;100.00;44.80;;;3.60;99.90;;;;;;4971046;28;20050;-82
2021/12/12 01:45:44;;;;;;;106.90;48.15;;;3.60;99.90;;;;;;4970246;28;20128;-83
2021/12/12 01:48:19;;;;;;;101.20;44.63;;;4.50;99.90;;;;;;4986649;28;20129;-84
2021/12/12 01:50:51;;;;;;;107.32;47.08;;;3.80;99.90;;;;;;4971049;28;20465;-85
2021/12/12 01:53:20;;;;;;;94.65;44.80;;;4.60;99.90;;;;;;4970942;28;20406;-85
2021/12/12 01:56:00;;;;;;;105.43;45.45;;;4.50;99.90;;;;;;4987657;28;20137;-85
2021/12/12 01:58:29;;;;;;;102.25;46.38;;;3.60;99.90;;;;;;4987045;28;20070;-86
2021/12/12 02:01:02;;;;;;;108.20;47.55;;;4.80;99.90;;;;;;4987963;28;20046;-85
2021/12/12 02:03:31;;;;;;;;;;;3.70;99.90;;;;;;4970644;28;20506;-85
2021/12/12 02:05:57;;;;;;;115.60;46.42;;;4.50;99.90;;;;;;5003577;28;19944;-85
2021/12/12 02:08:24;;;;;;;111.72;47.83;;;4.40;99.90;;;;;;4971183;28;20058;-85
2021/12/12 02:10:57;;;;;;;112.93;46.53;;;4.20;99.90;;;;;;4971051;28;20050;-86
2021/12/12 02:13:25;;;;;;;103.38;45.22;;;4.50;99.90;;;;;;4971290;28;20571;-86
2021/12/12 02:15:55;;;;;;;120.72;46.67;;;3.60;99.90;;;;;;4971146;28;20137;-86
2021/12/12 02:18:29;;;;;;;107.47;46.97;;;4.50;99.90;;;;;;4970637;28;20502;-85
2021/12/12 02:21:08;;;;;;;124.45;47.80;;;4.70;99.90;;;;;;4987600;28;20046;-86
2021/12/12 02:23:57;;;;;;;110.75;45.20;;;3.90;99.90;;;;;;4986393;28;20077;-85
2021/12/12 02:35:12;;;;;;;113.70;46.00;;;3.70;99.90;;;;;;4986205;28;20112;-85
2021/12/12 02:37:38;;;;;;;108.18;46.00;;;4.00;99.90;;;;;;4970890;28;20038;-86
2021/12/12 02:40:13;;;;;;;123.63;48.65;;;3.90;99.90;;;;;;4971232;28;20046;-85
2021/12/12 02:42:40;;;;;;;102.97;44.50;;;3.70;99.90;;;;;;4970902;28;20042;-87
2021/12/12 02:45:09;;;;;;;112.55;44.78;;;3.90;99.90;;;;;;4986728;28;20043;-85
2021/12/12 02:47:36;;;;;;;107.57;44.08;;;4.60;99.90;;;;;;4969431;28;20161;-86
2021/12/12 02:50:15;;;;;;;97.82;43.75;;;4.90;99.90;;;;;;4970940;28;20090;-85
2021/12/12 02:52:53;;;;;;;111.72;44.55;;;3.80;99.90;;;;;;4970763;28;20116;-85
2021/12/12 02:55:28;;;;;;;101.10;42.70;;;4.50;99.90;;;;;;4970601;28;20493;-86
2021/12/12 02:57:56;;;;;;;105.70;43.00;;;3.80;99.90;;;;;;4991185;28;20034;-86
2021/12/12 03:00:27;;;;;;;102.30;43.97;;;5.00;99.90;;;;;;4974784;28;20066;-86
2021/12/12 03:02:58;;;;;;;110.00;42.67;;;3.80;99.90;;;;;;4973820;28;20513;-85
2021/12/12 03:05:28;;;;;;;102.50;41.75;;;3.80;99.90;;;;;;4974571;28;20053;-86
2021/12/12 03:07:55;;;;;;;97.82;43.17;;;3.80;99.90;;;;;;4974989;28;20640;-85
2021/12/12 03:10:26;;;;;;;107.97;43.00;;;4.20;99.90;;;;;;4974147;28;20477;-86
2021/12/12 03:12:53;;;;;;;97.47;42.60;;;3.80;99.90;;;;;;4974751;28;20043;-86
2021/12/12 03:15:23;;;;;;;106.78;43.30;;;3.90;99.90;;;;;;4973998;28;20413;-85
2021/12/12 03:17:52;;;;;;;97.85;41.15;;;3.90;99.90;;;;;;4989936;28;20045;-86
2021/12/12 03:20:25;;;;;;;88.15;40.55;;;3.90;99.90;;;;;;4974169;28;20502;-86
2021/12/12 03:23:02;;;;;;;106.45;41.33;;;5.10;99.90;;;;;;4990034;28;20096;-86
2021/12/12 03:25:31;;;;;;;112.03;42.17;;;3.90;99.90;;;;;;4990440;28;20056;-86
2021/12/12 03:27:57;;;;;;;104.60;40.72;;;4.60;99.90;;;;;;4974755;28;20085;-86
2021/12/12 03:30:22;;;;;;;102.72;39.67;;;5.00;99.90;;;;;;4990183;28;20116;-86
2021/12/12 03:32:48;;;;;;;99.93;40.15;;;3.90;99.90;;;;;;4972987;28;20042;-86
2021/12/12 03:35:14;;;;;;;124.30;44.45;;;3.90;99.90;;;;;;4974467;28;20051;-86
2021/12/12 03:37:43;;;;;;;101.80;41.95;;;3.90;99.90;;;;;;4974271;28;20446;-86
2021/12/12 03:40:17;;;;;;;99.43;40.45;;;5.00;99.90;;;;;;4991050;28;20057;-86
2021/12/12 03:42:45;;;;;;;93.53;39.28;;;4.00;99.90;;;;;;4990690;28;20308;-87
2021/12/12 03:45:12;;;;;;;88.20;37.03;;;4.60;99.90;;;;;;4973959;28;20446;-85
2021/12/12 03:47:42;;;;;;;92.22;37.42;;;5.30;99.90;;;;;;4989678;28;20116;-87
2021/12/12 03:50:14;;;;;;;85.93;35.72;;;4.10;99.90;;;;;;4974939;28;20383;-87
2021/12/12 03:52:40;;;;;;;85.90;36.70;;;4.40;99.90;;;;;;4973634;28;20056;-87
2021/12/12 03:55:08;;;;;;;89.00;35.72;;;4.80;99.90;;;;;;4974703;28;20050;-87
2021/12/12 03:57:34;;;;;;;84.13;36.65;;;4.20;99.90;;;;;;4973251;28;20047;-87
2021/12/12 04:00:00;;;;;;;81.80;33.90;;;4.20;99.90;;;;;;4975004;28;20046;-87
2021/12/12 04:02:27;;;;;;;84.55;34.95;;;4.20;99.90;;;;;;4973245;28;20042;-86
2021/12/12 04:04:53;;;;;;;69.60;32.05;;;4.30;99.90;;;;;;4973922;28;20077;-88
2021/12/12 04:07:24;;;;;;;87.38;32.65;;;4.30;99.90;;;;;;4974268;28;20518;-87
2021/12/12 04:09:52;;;;;;;68.10;29.92;;;4.40;99.90;;;;;;4973885;28;20544;-87
2021/12/12 04:12:19;;;;;;;66.18;28.77;;;4.80;99.90;;;;;;4973795;28;20042;-87
2021/12/12 04:14:46;;;;;;;60.05;28.83;;;5.50;99.90;;;;;;4973500;28;20085;-87
2021/12/12 04:17:16;;;;;;;52.35;25.42;;;5.70;99.90;;;;;;4989692;28;20043;-86
2021/12/12 04:19:44;;;;;;;53.97;26.23;;;5.50;99.90;;;;;;4989648;28;20117;-86
2021/12/12 04:22:10;;;;;;;47.55;23.17;;;5.40;99.90;;;;;;4973692;28;20042;-87
2021/12/12 04:24:40;;;;;;;51.58;23.90;;;4.50;99.90;;;;;;4973700;28;20053;-86
2021/12/12 04:27:06;;;;;;;46.65;23.13;;;4.60;99.90;;;;;;4973370;28;20501;-86
2021/12/12 04:29:36;;;;;;;44.35;22.67;;;4.60;99.90;;;;;;4989237;28;20053;-86
2021/12/12 04:32:08;;;;;;;40.67;22.20;;;4.90;99.90;;;;;;4973216;28;20486;-86
2021/12/12 04:34:38;;;;;;;45.78;22.90;;;4.60;99.90;;;;;;4972235;28;20088;-86
2021/12/12 04:37:05;;;;;;;42.13;21.17;;;4.60;99.90;;;;;;4973423;28;20418;-86
2021/12/12 04:39:36;;;;;;;42.58;20.80;;;5.80;99.90;;;;;;4972951;28;20046;-86
2021/12/12 04:42:12;;;;;;;44.92;21.42;;;4.60;99.90;;;;;;4989471;28;20047;-86
2021/12/12 04:44:40;;;;;;;38.15;21.55;;;4.60;99.90;;;;;;4972967;28;20053;-86
2021/12/12 04:50:24;;;;;;;42.63;21.75;;;5.10;99.90;;;;;;4989148;28;20047;-86
2021/12/12 04:53:02;;;;;;;43.85;22.35;;;4.60;99.90;;;;;;4989817;28;20085;-87
2021/12/12 04:55:32;;;;;;;41.35;19.95;;;4.60;99.90;;;;;;4973524;28;20092;-87
2021/12/12 04:58:04;;;;;;;35.40;19.02;;;4.70;99.90;;;;;;4973018;28;20038;-88
2021/12/12 05:00:35;;;;;;;37.65;20.27;;;4.70;99.90;;;;;;4973470;28;20046;-88
2021/12/12 05:03:13;;;;;;;33.38;20.45;;;4.80;99.90;;;;;;4989298;28;20050;-87
2021/12/12 05:05:41;;;;;;;41.47;21.10;;;4.60;99.90;;;;;;4972797;28;20050;-87
2021/12/12 05:08:14;;;;;;;40.00;21.48;;;4.70;99.90;;;;;;4972862;28;20050;-87
2021/12/12 05:10:50;;;;;;;39.03;20.42;;;5.50;99.90;;;;;;4972802;28;20133;-86
2021/12/12 05:13:21;;;;;;;33.83;19.15;;;5.30;99.90;;;;;;4972919;28;20046;-88
2021/12/12 05:15:52;;;;;;;41.75;20.20;;;5.50;99.90;;;;;;4972624;28;20049;-87
2021/12/12 05:18:22;;;;;;;31.20;18.17;;;5.50;99.90;;;;;;4971334;28;20116;-87
2021/12/12 05:20:54;;;;;;;34.92;18.02;;;4.90;99.90;;;;;;4972184;28;20053;-87
2021/12/12 05:23:23;;;;;;;28.38;18.05;;;5.70;99.90;;;;;;4972343;28;20046;-87
2021/12/12 05:25:56;;;;;;;27.35;16.80;;;4.60;99.90;;;;;;4976598;28;20116;-87
2021/12/12 05:28:29;;;;;;;24.95;17.02;;;4.60;99.90;;;;;;4991522;28;20141;-87
2021/12/12 05:30:55;;;;;;;24.83;15.43;;;5.40;99.90;;;;;;4991925;28;20042;-87
2021/12/12 05:33:21;;;;;;;23.42;16.10;;;4.70;99.90;;;;;;4990810;28;20077;-86
2021/12/12 05:35:48;;;;;;;25.23;16.70;;;4.70;99.90;;;;;;4991369;28;20458;-87
2021/12/12 05:38:14;;;;;;;24.75;15.68;;;4.70;99.90;;;;;;4991504;28;20104;-87
2021/12/12 05:40:43;;;;;;;31.48;16.83;;;5.90;99.90;;;;;;5007553;28;20132;-86
2021/12/12 05:43:12;;;;;;;23.85;15.75;;;5.20;99.90;;;;;;4991692;28;20214;-86
2021/12/12 05:45:38;;;;;;;23.33;15.48;;;4.80;99.90;;;;;;4990953;28;20108;-86
2021/12/12 05:48:06;;;;;;;27.08;16.90;;;5.40;99.90;;;;;;4991793;28;20092;-86
2021/12/12 05:50:32;;;;;;;28.15;16.80;;;4.80;99.90;;;;;;4990958;28;20050;-86
2021/12/12 05:52:58;;;;;;;25.05;16.63;;;5.30;99.90;;;;;;5008531;28;20038;-87
2021/12/12 05:55:27;;;;;;;29.15;19.17;;;5.40;99.90;;;;;;4991729;28;20046;-87
2021/12/12 05:57:55;;;;;;;32.60;18.23;;;4.80;99.90;;;;;;5004083;28;20043;-87
2021/12/12 06:00:26;;;;;;;33.13;18.25;;;5.60;99.90;;;;;;4988449;28;20116;-87
2021/12/12 06:02:53;;;;;;;26.88;17.10;;;5.90;99.90;;;;;;4987842;28;20137;-86
2021/12/12 06:05:19;;;;;;;28.02;17.92;;;6.00;99.90;;;;;;4987896;28;20038;-87
2021/12/12 06:07:45;;;;;;;29.48;18.23;;;5.80;99.90;;;;;;4971506;28;20050;-87
2021/12/12 06:10:15;;;;;;;30.42;18.80;;;5.20;99.90;;;;;;4972269;28;20066;-87
2021/12/12 06:12:43;;;;;;;39.65;20.00;;;4.90;99.90;;;;;;4970932;28;20388;-86
2021/12/12 06:15:14;;;;;;;31.90;18.85;;;5.50;99.90;;;;;;4988631;28;20431;-87
2021/12/12 06:17:41;;;;;;;36.33;19.85;;;4.90;99.90;;;;;;4970630;28;20085;-86
2021/12/12 06:20:08;;;;;;;34.45;19.55;;;5.90;99.90;;;;;;4972098;28;20050;-87
2021/12/12 06:22:35;;;;;;;33.42;19.08;;;4.90;99.90;;;;;;4987416;28;20125;-87
2021/12/12 06:25:01;;;;;;;32.13;19.73;;;5.50;99.90;;;;;;4973420;28;20427;-88
2021/12/12 06:27:29;;;;;;;37.92;19.08;;;5.00;99.90;;;;;;4971829;28;20047;-87
2021/12/12 06:29:55;;;;;;;32.38;19.45;;;6.00;99.90;;;;;;4972433;28;20078;-88
2021/12/12 06:32:22;;;;;;;30.55;18.15;;;5.80;99.90;;;;;;4971437;28;20049;-88
2021/12/12 06:34:49;;;;;;;33.05;18.80;;;5.00;99.90;;;;;;4987675;28;20623;-87
2021/12/12 06:37:16;;;;;;;27.45;18.02;;;5.30;99.90;;;;;;4982142;28;20134;-88
2021/12/12 06:39:43;;;;;;;29.45;16.67;;;5.80;99.90;;;;;;4991056;28;20069;-87
2021/12/12 06:42:11;;;;;;;35.42;18.90;;;5.80;99.90;;;;;;4991427;28;20440;-87
2021/12/12 06:44:39;;;;;;;27.67;16.88;;;5.30;99.90;;;;;;4990791;28;20056;-87
2021/12/12 06:47:08;;;;;;;28.38;17.45;;;5.70;99.90;;;;;;5006195;28;20057;-86
2021/12/12 06:49:35;;;;;;;28.58;17.63;;;5.10;99.90;;;;;;4990116;28;20145;-86
2021/12/12 06:52:01;;;;;;;31.85;16.35;;;5.10;99.90;;;;;;4991450;28;20050;-87
2021/12/12 06:54:30;;;;;;;30.73;18.25;;;5.10;99.90;;;;;;5006704;28;20042;-87
2021/12/12 06:56:59;;;;;;;28.30;17.02;;;5.20;99.90;;;;;;4990725;28;20050;-87
2021/12/12 06:59:29;;;;;;;28.23;16.15;;;5.20;99.90;;;;;;5006799;28;20139;-85
2021/12/12 07:01:55;;;;;;;34.20;17.92;;;5.20;99.90;;;;;;4989743;28;20046;-86
2021/12/12 07:04:22;;;;;;;32.45;17.88;;;5.30;99.90;;;;;;4990637;28;20541;-86
2021/12/12 07:06:52;;;;;;;29.02;17.88;;;5.30;99.90;;;;;;4990639;28;20050;-87
2021/12/12 07:09:18;;;;;;;26.55;16.77;;;5.30;99.90;;;;;;4990591;28;20081;-87
2021/12/12 07:11:45;;;;;;;33.20;17.92;;;5.30;99.90;;;;;;4990328;28;20042;-86
2021/12/12 07:14:13;;;;;;;30.42;17.88;;;5.60;99.90;;;;;;4990682;28;20077;-87
2021/12/12 07:16:40;;;;;;;31.52;17.73;;;5.30;99.90;;;;;;4989901;28;20046;-86
2021/12/12 07:19:07;;;;;;;35.28;19.05;;;5.40;99.90;;;;;;4990295;28;20050;-87
2021/12/12 07:21:34;;;;;;;32.22;17.88;;;5.30;99.90;;;;;;5006049;28;20050;-87
2021/12/12 07:24:03;;;;;;;30.88;18.42;;;6.00;99.90;;;;;;4990842;28;20069;-86
2021/12/12 07:26:29;;;;;;;39.28;18.98;;;5.80;99.90;;;;;;4989602;28;20046;-87
2021/12/12 07:28:58;;;;;;;37.72;19.95;;;5.40;99.90;;;;;;4990041;28;20096;-86
2021/12/12 07:31:27;;;;;;;43.80;21.75;;;6.10;99.90;;;;;;4990160;28;20394;-87
2021/12/12 07:33:58;;;;;;;43.58;22.23;;;5.40;99.90;;;;;;4990000;28;20042;-86
2021/12/12 07:36:25;;;;;;;38.97;20.98;;;5.40;99.90;;;;;;5005737;28;20041;-86
2021/12/12 07:38:55;;;;;;;40.80;20.45;;;5.50;99.90;;;;;;5006653;28;20054;-86
2021/12/12 07:41:27;;;;;;;43.38;21.15;;;5.50;99.90;;;;;;4990162;28;20061;-86
2021/12/12 07:43:53;;;;;;;47.58;22.08;;;5.50;99.90;;;;;;5009754;28;20458;-86
2021/12/12 07:46:20;;;;;;;44.70;21.60;;;5.50;99.90;;;;;;5009182;28;20417;-86
2021/12/12 07:48:48;;;;;;;42.92;21.98;;;5.50;99.90;;;;;;4992592;28;20130;-86
2021/12/12 07:51:14;;;;;;;44.50;21.00;;;5.60;99.90;;;;;;5009400;28;20045;-86
2021/12/12 07:53:40;;;;;;;55.33;23.23;;;6.40;99.90;;;;;;4993000;28;20046;-86
2021/12/12 07:56:09;;;;;;;46.78;21.92;;;6.10;99.90;;;;;;5010333;28;20054;-86
2021/12/12 07:58:36;;;;;;;48.05;21.65;;;6.70;99.90;;;;;;4989318;28;20050;-86
2021/12/12 08:01:04;;;;;;;42.92;21.35;;;5.80;99.90;;;;;;4989963;28;20557;-86
2021/12/12 08:03:34;;;;;;;50.42;22.67;;;5.70;99.90;;;;;;4988155;28;20051;-86
2021/12/12 08:06:00;;;;;;;43.92;21.67;;;6.70;99.90;;;;;;4990184;28;20077;-86
2021/12/12 08:08:28;;;;;;;42.38;20.55;;;6.40;99.90;;;;;;4989572;28;20105;-85
2021/12/12 08:10:57;;;;;;;42.10;21.08;;;5.80;99.90;;;;;;4973574;28;20050;-86
2021/12/12 08:13:23;;;;;;;46.78;21.85;;;6.90;99.90;;;;;;4975534;28;20139;-86
2021/12/12 08:15:50;;;;;;;49.50;23.05;;;6.60;99.90;;;;;;4992821;28;20542;-87
2021/12/12 08:18:18;;;;;;;52.85;22.70;;;6.00;99.90;;;;;;4971756;28;20046;-87
2021/12/12 08:20:47;;;;;;;43.58;22.40;;;6.60;99.90;;;;;;4973644;28;20142;-86
2021/12/12 08:23:15;;;;;;;48.33;21.45;;;6.90;99.90;;;;;;4973238;28;20494;-86
2021/12/12 08:25:42;;;;;;;48.53;22.45;;;7.00;99.90;;;;;;4989362;28;20046;-86
2021/12/12 08:28:09;;;;;;;52.53;22.17;;;6.20;99.90;;;;;;4989799;28;20394;-86
2021/12/12 08:30:37;;;;;;;42.05;20.63;;;6.90;99.90;;;;;;4989645;28;20351;-87
2021/12/12 08:33:05;;;;;;;41.70;20.65;;;6.30;99.90;;;;;;4989092;28;20133;-85
2021/12/12 08:35:33;;;;;;;47.28;21.73;;;6.10;99.90;;;;;;4988959;28;20046;-85
2021/12/12 08:38:02;;;;;;;42.75;21.52;;;6.10;99.90;;;;;;4990779;28;20501;-84
2021/12/12 08:40:32;;;;;;;53.03;20.67;;;7.20;99.90;;;;;;4979212;28;21364;-85
2021/12/12 08:43:00;;;;;;;45.70;20.77;;;6.60;99.90;;;;;;4980393;28;20142;-85
2021/12/12 08:45:32;;;;;;;50.92;22.15;;;6.70;99.90;;;;;;4997990;28;20058;-86
2021/12/12 08:48:00;;;;;;;49.65;21.88;;;6.20;99.90;;;;;;4994846;28;20049;-86
2021/12/12 08:50:30;;;;;;;52.92;22.75;;;6.30;99.90;;;;;;4979550;28;20490;-87
2021/12/12 08:52:57;;;;;;;50.72;23.05;;;6.30;99.90;;;;;;4979842;28;20565;-87
2021/12/12 08:55:31;;;;;;;50.65;22.13;;;7.30;99.90;;;;;;4992888;28;20046;-87
2021/12/12 08:58:14;;;;;;;55.05;23.00;;;7.10;99.90;;;;;;4993869;28;20084;-87
2021/12/12 09:00:48;;;;;;;60.40;24.40;;;6.30;99.90;;;;;;4977175;28;20058;-87
2021/12/12 09:03:20;;;;;;;57.45;23.80;;;6.30;99.90;;;;;;4993214;28;20132;-87
2021/12/12 09:05:46;;;;;;;66.40;24.55;;;6.30;99.90;;;;;;4995661;28;20469;-86
2021/12/12 09:08:17;;;;;;;61.55;24.58;;;6.30;99.90;;;;;;4977729;28;20049;-86
2021/12/12 09:10:55;;;;;;;68.80;24.48;;;6.40;99.90;;;;;;4993562;28;20042;-85
2021/12/12 09:13:27;;;;;;;64.15;25.13;;;6.40;99.90;;;;;;4992975;28;20046;-85
2021/12/12 09:16:09;;;;;;;68.50;26.73;;;7.30;99.90;;;;;;4987866;28;20409;-85
2021/12/12 09:18:38;;;;;;;76.97;27.45;;;6.40;99.90;;;;;;5003103;28;20487;-87
2021/12/12 09:21:10;;;;;;;71.30;27.02;;;6.50;99.90;;;;;;5004725;28;20515;-86
2021/12/12 09:23:44;;;;;;;69.43;26.77;;;6.50;99.90;;;;;;5003335;28;20084;-86
2021/12/12 09:26:18;;;;;;;79.07;27.70;;;6.50;99.90;;;;;;4999942;28;20042;-85
2021/12/12 09:28:51;;;;;;;78.68;28.05;;;6.50;99.90;;;;;;4984315;28;20133;-87
2021/12/12 09:31:25;;;;;;;89.20;28.50;;;7.40;99.90;;;;;;4988403;28;20506;-87
2021/12/12 09:33:58;;;;;;;87.20;28.42;;;6.60;99.90;;;;;;4976432;28;20148;-86
2021/12/12 09:36:33;;;;;;;82.80;29.75;;;6.60;99.90;;;;;;4976342;28;20112;-85
2021/12/12 09:39:07;;;;;;;93.50;31.13;;;6.90;99.90;;;;;;4974772;28;20042;-87
2021/12/12 09:42:00;;;;;;;113.03;32.42;;;6.70;99.90;;;;;;4968110;28;20058;-87
2021/12/12 09:44:48;;;;;;;91.50;29.88;;;6.70;99.90;;;;;;4987221;28;20506;-87
2021/12/12 09:47:27;;;;;;;115.32;33.90;;;6.70;99.90;;;;;;4974438;28;20049;-86
2021/12/12 09:53:11;;;;;;;124.57;33.92;;;6.70;99.90;;;;;;5004037;28;20434;-87
2021/12/12 09:55:46;;;;;;;134.77;35.22;;;6.80;99.90;;;;;;4990150;28;20050;-86
2021/12/12 09:58:23;;;;;;;132.98;36.03;;;6.80;99.90;;;;;;4983747;28;20084;-86
2021/12/12 10:00:58;;;;;;;152.63;38.28;;;6.80;99.90;;;;;;4998453;28;20558;-86
2021/12/12 10:03:45;;;;;;;151.32;38.65;;;6.90;99.90;;;;;;4997280;28;20115;-86
2021/12/12 10:06:28;;;;;;;133.07;36.58;;;7.30;99.90;;;;;;4981202;28;20124;-86
2021/12/12 10:08:58;;;;;;;;;;;6.90;99.90;;;;;;4999297;28;20046;-86
2021/12/12 10:11:39;;;;;;;145.95;36.28;;;6.90;99.90;;;;;;4978818;28;19925;-86
2021/12/12 10:14:30;;;;;;;154.18;38.97;;;7.00;99.90;;;;;;4979468;28;20042;-86
2021/12/12 10:17:13;;;;;;;157.10;41.15;;;7.00;99.90;;;;;;4980283;28;20029;-86
2021/12/12 10:19:41;;;;;;;150.23;38.97;;;7.10;99.90;;;;;;4981493;28;20527;-86
2021/12/12 10:22:21;;;;;;;141.38;38.30;;;7.10;99.90;;;;;;4981852;28;20449;-86
2021/12/12 10:25:00;;;;;;;176.85;43.05;;;7.10;99.90;;;;;;4981933;28;20123;-86
2021/12/12 10:27:32;;;;;;;168.88;41.20;;;7.40;99.90;;;;;;5007126;28;20045;-86
2021/12/12 10:30:16;;;;;;;151.90;38.67;;;7.70;99.90;;;;;;4994327;28;20041;-86
2021/12/12 10:33:00;;;;;;;158.15;40.63;;;7.30;99.90;;;;;;4996159;28;20083;-88
2021/12/12 10:35:34;;;;;;;160.77;41.20;;;7.30;99.90;;;;;;5013551;28;20045;-86
2021/12/12 10:38:10;;;;;;;148.38;39.42;;;8.00;99.90;;;;;;5013147;28;20044;-87
2021/12/12 10:40:41;;;;;;;154.50;39.42;;;7.40;99.90;;;;;;5013777;28;20178;-92
2021/12/12 10:43:12;;;;;;;182.68;42.72;;;7.50;99.90;;;;;;4992675;28;20037;-91
2021/12/12 10:45:49;;;;;;;159.18;40.72;;;7.50;99.90;;;;;;4982676;28;20053;-86
2021/12/12 10:48:18;;;;;;;156.10;39.95;;;7.60;99.90;;;;;;5003756;28;20052;-89
2021/12/12 10:54:35;;;;;;;151.95;38.88;;;7.70;99.90;;;;;;5066624;23;20112;-90
2021/12/12 10:57:07;;;;;;;155.52;39.47;;;7.80;99.90;;;;;;4979377;28;20134;-90
2021/12/12 10:59:39;;;;;;;146.77;38.15;;;8.00;99.90;;;;;;4972102;28;20045;-89
2021/12/12 11:02:08;;;;;;;145.77;37.78;;;8.80;99.90;;;;;;4973021;28;20516;-91
2021/12/12 11:07:27;;;;;;;130.25;37.45;;;7.90;99.90;;;;;;4990183;28;20045;-86
2021/12/12 11:09:59;;;;;;;157.60;40.28;;;7.90;99.90;;;;;;4973393;28;20053;-86
2021/12/12 11:12:43;;;;;;;146.60;37.50;;;7.90;99.90;;;;;;4989990;28;20053;-87
2021/12/12 11:15:20;;;;;;;139.68;37.42;;;8.00;99.90;;;;;;4974036;28;20520;-89
2021/12/12 11:17:59;;;;;;;144.73;36.70;;;8.00;99.90;;;;;;4977635;28;20088;-90
2021/12/12 11:20:34;;;;;;;121.25;33.67;;;8.00;99.90;;;;;;4977521;28;20501;-88
2021/12/12 11:23:07;;;;;;;129.55;35.70;;;8.10;99.90;;;;;;4977771;28;20493;-87
2021/12/12 11:25:48;;;;;;;131.68;34.50;;;8.10;99.90;;;;;;4977520;28;20144;-89
2021/12/12 11:28:23;;;;;;;110.40;32.78;;;8.10;99.90;;;;;;4978326;28;20132;-90
2021/12/12 11:31:00;;;;;;;126.00;35.40;;;8.20;99.90;;;;;;4978785;28;20046;-88
2021/12/12 11:33:30;;;;;;;100.97;30.65;;;8.20;99.90;;;;;;4977879;28;20046;-89
2021/12/12 11:35:57;;;;;;;132.52;35.70;;;8.30;99.90;;;;;;4977515;28;20140;-90
2021/12/12 11:38:55;;;;;;;118.78;32.67;;;8.40;99.90;;;;;;4971686;28;20077;-94
2021/12/12 11:41:25;;;;;;;112.80;33.75;;;8.40;99.90;;;;;;4974232;28;20062;-89
2021/12/12 11:44:02;;;;;;;112.32;34.22;;;8.40;99.90;;;;;;4974479;28;20092;-88
2021/12/12 11:46:37;;;;;;;98.32;30.60;;;8.50;99.90;;;;;;4973373;28;20190;-87
2021/12/12 11:49:23;;;;;;;85.88;29.27;;;8.60;99.90;;;;;;4972339;28;20525;-91
2021/12/12 11:51:57;;;;;;;77.63;27.50;;;8.60;99.90;;;;;;4989059;28;20509;-89
2021/12/12 11:54:40;;;;;;;99.45;29.83;;;8.60;99.90;;;;;;4960043;28;20046;-86
2021/12/12 11:57:13;;;;;;;100.25;30.17;;;9.00;99.90;;;;;;4955187;28;20526;-92
2021/12/12 11:59:51;;;;;;;94.72;30.02;;;8.60;99.90;;;;;;4956877;28;20345;-90
2021/12/12 12:06:09;;;;;;;72.60;27.08;;;8.70;99.90;;;;;;4989574;28;20054;-88
2021/12/12 12:08:45;;;;;;;83.85;29.85;;;8.70;99.90;;;;;;4953079;28;20049;-87
2021/12/12 12:11:28;;;;;;;102.03;32.95;;;8.80;99.90;;;;;;4954131;28;20047;-86
2021/12/12 12:13:56;;;;;;;92.22;29.80;;;8.80;99.90;;;;;;4954763;28;20053;-86
2021/12/12 12:16:40;;;;;;;77.63;27.98;;;8.80;99.90;;;;;;4954007;28;20085;-87
2021/12/12 12:19:21;;;;;;;87.30;27.95;;;8.80;99.90;;;;;;4955280;28;20046;-87
2021/12/12 12:21:52;;;;;;;87.15;29.08;;;8.80;99.90;;;;;;4953237;28;20099;-86
2021/12/12 12:24:22;;;;;;;78.63;27.42;;;8.90;99.90;;;;;;4953245;28;20070;-86
2021/12/12 12:26:56;;;;;;;72.60;25.77;;;8.90;99.90;;;;;;4951680;28;20133;-86
2021/12/12 12:29:22;;;;;;;71.68;24.98;;;8.90;99.90;;;;;;4952762;28;20042;-87
2021/12/12 12:32:04;;;;;;;68.13;25.48;;;9.70;99.90;;;;;;4954347;28;20402;-87
2021/12/12 12:35:08;;;;;;;75.90;25.65;;;8.80;99.90;;;;;;4953736;28;20122;-88
2021/12/12 12:38:26;;;;;;;71.55;24.23;;;8.80;99.90;;;;;;4954332;28;20035;-87
2021/12/12 12:41:38;;;;;;;64.88;23.33;;;8.80;99.90;;;;;;4953811;28;20080;-87
2021/12/12 12:44:35;;;;;;;66.15;24.10;;;8.80;99.90;;;;;;4970836;28;20045;-87
2021/12/12 12:47:29;;;;;;;82.53;25.95;;;8.80;99.90;;;;;;4959428;28;20054;-87
2021/12/12 12:50:21;;;;;;;75.15;24.83;;;8.80;99.90;;;;;;4968350;28;20069;-88
2021/12/12 12:53:07;;;;;;;88.00;27.73;;;8.80;99.90;;;;;;4966820;28;20494;-88
2021/12/12 12:55:55;;;;;;;74.13;25.63;;;8.80;99.90;;;;;;4971985;28;20811;-88
2021/12/12 12:58:23;;;;;;;88.05;27.40;;;8.90;99.90;;;;;;4971435;28;20397;-88
2021/12/12 13:00:54;;;;;;;75.07;25.08;;;8.90;99.90;;;;;;4987964;28;20320;-87
2021/12/12 13:03:37;;;;;;;89.45;26.35;;;8.90;99.90;;;;;;4986706;28;20045;-87
2021/12/12 13:06:04;;;;;;;79.47;25.07;;;8.90;99.90;;;;;;4971390;28;20124;-88
2021/12/12 13:08:48;;;;;;;85.55;26.00;;;9.00;99.90;;;;;;4971767;28;20300;-88
2021/12/12 13:11:30;;;;;;;81.75;26.08;;;9.10;99.90;;;;;;4979295;28;20054;-87
2021/12/12 13:14:10;;;;;;;86.95;25.73;;;8.90;99.90;;;;;;4988505;28;20065;-88
2021/12/12 13:16:46;;;;;;;83.43;24.92;;;8.90;99.90;;;;;;4984898;28;20490;-86
2021/12/12 13:19:29;;;;;;;89.22;25.30;;;8.90;99.90;;;;;;4971658;28;20046;-88
2021/12/12 13:22:14;;;;;;;85.22;26.40;;;8.90;99.90;;;;;;4970275;28;20116;-89